Time;durP1;ratioP1;P1;durP2;ratioP2;P2;SDS_P1;SDS_P2;PMS_P1;PMS_P2;Temp;Humidity;BMP_temperature;BMP_pressure;BME280_temperature;BME280_humidity;BME280_pressure;Samples;Min_cycle;Max_cycle;Signal;HPM_P1;HPM_P2
2022/10/10 00:00:03;;;;;;;0.57;0.57;;;10.30;99.90;;;;;;5052442;28;20222;-78
2022/10/10 00:02:31;;;;;;;0.50;0.40;;;10.20;99.90;;;;;;5052429;28;20206;-78
2022/10/10 00:04:58;;;;;;;0.50;0.40;;;10.30;99.90;;;;;;5052715;28;20202;-78
2022/10/10 00:07:24;;;;;;;0.50;0.40;;;10.40;99.90;;;;;;5052469;28;20198;-78
2022/10/10 00:09:51;;;;;;;0.50;0.50;;;10.30;99.90;;;;;;5052537;28;20309;-78
2022/10/10 00:12:18;;;;;;;0.50;0.40;;;10.30;99.90;;;;;;5052110;28;20285;-77
2022/10/10 00:14:45;;;;;;;0.50;0.40;;;10.40;99.90;;;;;;5052162;28;20564;-78
2022/10/10 00:17:12;;;;;;;0.50;0.40;;;10.40;99.90;;;;;;5052568;28;20616;-78
2022/10/10 00:19:40;;;;;;;0.50;0.40;;;10.50;99.90;;;;;;5052489;28;20639;-77
2022/10/10 00:22:07;;;;;;;0.50;0.40;;;10.60;99.90;;;;;;5052354;28;20222;-79
2022/10/10 00:24:34;;;;;;;0.50;0.40;;;10.60;99.90;;;;;;5052018;28;20684;-78
2022/10/10 00:27:01;;;;;;;0.50;0.40;;;10.70;99.90;;;;;;5052151;28;20199;-77
2022/10/10 00:29:27;;;;;;;0.50;0.40;;;10.80;99.90;;;;;;5052325;28;20265;-75
2022/10/10 00:31:54;;;;;;;0.50;0.40;;;10.80;99.90;;;;;;5052088;28;20301;-78
2022/10/10 00:34:21;;;;;;;0.50;0.50;;;10.80;99.90;;;;;;5051774;28;20197;-78
2022/10/10 00:36:49;;;;;;;0.50;0.40;;;10.80;99.90;;;;;;5052312;28;20293;-78
2022/10/10 00:39:16;;;;;;;0.50;0.40;;;10.80;99.90;;;;;;5052019;28;20226;-78
2022/10/10 00:41:43;;;;;;;0.50;0.40;;;10.80;99.90;;;;;;5051900;28;20226;-78
2022/10/10 00:44:13;;;;;;;0.50;0.40;;;10.90;99.90;;;;;;5051535;28;20298;-78
2022/10/10 00:46:40;;;;;;;0.50;0.40;;;10.80;99.90;;;;;;5052620;28;20190;-73
2022/10/10 00:49:12;;;;;;;0.50;0.40;;;10.80;99.90;;;;;;5052059;28;20268;-79
2022/10/10 00:51:39;;;;;;;0.50;0.40;;;10.80;99.90;;;;;;5052432;28;20202;-78
2022/10/10 00:54:11;;;;;;;0.50;0.50;;;10.80;99.90;;;;;;5051094;28;20685;-78
2022/10/10 00:56:44;;;;;;;0.60;0.40;;;10.80;99.90;;;;;;5052392;28;20190;-75
2022/10/10 00:59:11;;;;;;;0.50;0.40;;;10.80;99.90;;;;;;5052036;28;20222;-78
2022/10/10 01:01:39;;;;;;;0.60;0.50;;;10.80;99.90;;;;;;5052157;28;20194;-78
2022/10/10 01:04:06;;;;;;;0.85;0.85;;;10.80;99.90;;;;;;5051491;28;20197;-78
2022/10/10 01:06:33;;;;;;;1.05;1.02;;;10.80;99.90;;;;;;5051826;28;20194;-78
2022/10/10 01:09:01;;;;;;;1.50;0.75;;;10.90;99.90;;;;;;5052184;28;20227;-78
2022/10/10 01:11:51;;;;;;;0.50;0.40;;;10.90;99.90;;;;;;5051615;28;20281;-78
2022/10/10 01:14:27;;;;;;;0.50;0.40;;;10.90;99.90;;;;;;5051904;28;20193;-78
2022/10/10 01:17:02;;;;;;;0.50;0.40;;;10.90;99.90;;;;;;5051792;28;20194;-78
2022/10/10 01:19:44;;;;;;;0.50;0.40;;;11.00;99.90;;;;;;5051796;28;20906;-74
2022/10/10 01:22:20;;;;;;;0.68;0.63;;;10.90;99.90;;;;;;5051881;28;20198;-78
2022/10/10 01:24:57;;;;;;;0.50;0.40;;;11.00;99.90;;;;;;5051493;28;20233;-78
2022/10/10 01:27:34;;;;;;;0.50;0.40;;;11.00;99.90;;;;;;5051493;28;20178;-78
2022/10/10 01:30:07;;;;;;;0.70;0.70;;;11.00;99.90;;;;;;5051347;28;20217;-77
2022/10/10 01:32:39;;;;;;;0.50;0.40;;;11.00;99.90;;;;;;5051828;28;20182;-74
2022/10/10 01:35:32;;;;;;;0.70;0.55;;;11.00;99.90;;;;;;5051355;28;20201;-78
2022/10/10 01:38:06;;;;;;;0.50;0.40;;;11.00;99.90;;;;;;5051205;28;20549;-78
2022/10/10 01:40:36;;;;;;;0.60;0.50;;;11.00;99.90;;;;;;5051039;28;20699;-79
2022/10/10 01:43:06;;;;;;;0.50;0.40;;;11.00;99.90;;;;;;5051692;28;20199;-78
2022/10/10 01:45:35;;;;;;;1.50;0.80;;;11.00;99.90;;;;;;5051212;28;20209;-78
2022/10/10 01:48:04;;;;;;;0.50;0.40;;;11.00;99.90;;;;;;5050780;28;20679;-78
2022/10/10 01:50:35;;;;;;;0.50;0.40;;;11.00;99.90;;;;;;5051191;28;20248;-75
2022/10/10 01:53:11;;;;;;;0.50;0.40;;;11.00;99.90;;;;;;5051715;28;20217;-78
2022/10/10 01:55:54;;;;;;;0.65;0.65;;;11.00;99.90;;;;;;5051051;28;20714;-74
2022/10/10 01:58:36;;;;;;;0.50;0.40;;;11.00;99.90;;;;;;5055445;28;20199;-78
2022/10/10 02:01:11;;;;;;;0.50;0.40;;;11.00;99.90;;;;;;5055391;28;20198;-78
2022/10/10 02:03:43;;;;;;;1.13;1.02;;;10.90;99.90;;;;;;5055027;28;20178;-76
2022/10/10 02:06:16;;;;;;;0.60;0.50;;;10.90;99.90;;;;;;5055057;28;20552;-78
2022/10/10 02:08:47;;;;;;;0.50;0.40;;;10.90;99.90;;;;;;5055215;28;20189;-78
2022/10/10 02:11:14;;;;;;;0.50;0.40;;;10.90;99.90;;;;;;5055124;28;20201;-78
2022/10/10 02:13:46;;;;;;;0.60;0.52;;;10.80;99.90;;;;;;5055165;28;20694;-78
2022/10/10 02:16:19;;;;;;;1.40;0.60;;;10.90;99.90;;;;;;5054473;28;20186;-78
2022/10/10 02:18:47;;;;;;;0.50;0.40;;;10.90;99.90;;;;;;5054721;28;20222;-77
2022/10/10 02:21:15;;;;;;;1.23;1.13;;;10.90;99.90;;;;;;5054907;28;20198;-78
2022/10/10 02:23:45;;;;;;;0.50;0.40;;;10.90;99.90;;;;;;5054777;28;20682;-78
2022/10/10 02:26:15;;;;;;;0.50;0.40;;;10.90;99.90;;;;;;5054561;28;20290;-78
2022/10/10 02:28:48;;;;;;;0.50;0.40;;;10.90;99.90;;;;;;5054567;28;20660;-78
2022/10/10 02:31:21;;;;;;;0.50;0.50;;;10.90;99.90;;;;;;5054713;28;20179;-78
2022/10/10 02:33:55;;;;;;;0.50;0.40;;;10.80;99.90;;;;;;5054673;28;20179;-78
2022/10/10 02:36:23;;;;;;;0.60;0.40;;;10.80;99.90;;;;;;5054945;28;20179;-78
2022/10/10 02:38:52;;;;;;;0.60;0.50;;;10.90;99.90;;;;;;5054178;28;20226;-78
2022/10/10 02:43:48;;;;;;;0.50;0.40;;;10.80;99.90;;;;;;5048742;28;20202;-79
2022/10/10 02:46:16;;;;;;;0.50;0.40;;;10.90;99.90;;;;;;5050606;28;20237;-79
2022/10/10 02:48:44;;;;;;;0.50;0.40;;;10.90;99.90;;;;;;5055831;28;20190;-78
2022/10/10 02:51:12;;;;;;;0.50;0.40;;;10.90;99.90;;;;;;5057042;28;20289;-79
2022/10/10 02:53:39;;;;;;;0.50;0.40;;;10.80;99.90;;;;;;5038588;28;20192;-79
2022/10/10 02:56:06;;;;;;;0.80;0.50;;;10.90;99.90;;;;;;5036449;28;20258;-79
2022/10/10 02:58:33;;;;;;;0.50;0.50;;;10.80;99.90;;;;;;5037390;28;20305;-79
2022/10/10 03:01:00;;;;;;;0.50;0.40;;;10.90;99.90;;;;;;5037038;28;20195;-78
2022/10/10 03:03:28;;;;;;;0.50;0.40;;;10.80;99.90;;;;;;5037098;28;20302;-79
2022/10/10 03:05:55;;;;;;;0.70;0.65;;;10.90;99.90;;;;;;5036906;28;20194;-78
2022/10/10 03:08:22;;;;;;;0.50;0.40;;;10.80;99.90;;;;;;5037124;28;20289;-78
2022/10/10 03:11:00;;;;;;;0.50;0.40;;;10.80;99.90;;;;;;5037515;28;20227;-77
2022/10/10 03:13:26;;;;;;;0.50;0.40;;;10.80;99.90;;;;;;5035865;28;20584;-79
2022/10/10 03:15:54;;;;;;;0.50;0.40;;;10.80;99.90;;;;;;5035800;28;20223;-78
2022/10/10 03:18:21;;;;;;;0.50;0.50;;;10.80;99.90;;;;;;5035931;28;20565;-79
2022/10/10 03:20:51;;;;;;;0.50;0.40;;;10.80;99.90;;;;;;5035197;28;20285;-78
2022/10/10 03:23:18;;;;;;;0.50;0.40;;;10.80;99.90;;;;;;5035909;28;20688;-78
2022/10/10 03:25:46;;;;;;;0.50;0.40;;;10.80;99.90;;;;;;5035513;28;20209;-78
2022/10/10 03:28:13;;;;;;;0.50;0.40;;;10.80;99.90;;;;;;5035963;28;20195;-77
2022/10/10 03:30:40;;;;;;;0.50;0.40;;;10.80;99.90;;;;;;5035688;28;20282;-78
2022/10/10 03:33:08;;;;;;;0.50;0.40;;;10.80;99.90;;;;;;5036273;28;20592;-77
2022/10/10 03:35:36;;;;;;;0.50;0.40;;;10.90;99.90;;;;;;5035136;28;20199;-78
2022/10/10 03:38:05;;;;;;;0.50;0.40;;;10.80;99.90;;;;;;5035553;28;20205;-79
2022/10/10 03:40:32;;;;;;;0.50;0.40;;;10.80;99.90;;;;;;5035744;28;20225;-77
2022/10/10 03:42:59;;;;;;;0.60;0.50;;;10.80;99.90;;;;;;5035632;28;20226;-78
2022/10/10 03:45:26;;;;;;;1.10;0.95;;;10.80;99.90;;;;;;5034552;28;20199;-78
2022/10/10 03:47:53;;;;;;;0.50;0.45;;;10.80;99.90;;;;;;5035953;28;20198;-78
2022/10/10 03:50:19;;;;;;;0.50;0.40;;;10.80;99.90;;;;;;5036223;28;20291;-79
2022/10/10 03:52:46;;;;;;;0.50;0.40;;;10.80;99.90;;;;;;5036018;28;20341;-78
2022/10/10 03:55:14;;;;;;;0.50;0.40;;;10.90;99.90;;;;;;5034947;28;20282;-79
2022/10/10 03:57:41;;;;;;;0.50;0.40;;;10.90;99.90;;;;;;5034825;28;20203;-79
2022/10/10 04:00:09;;;;;;;0.50;0.40;;;10.90;99.90;;;;;;5034369;28;20297;-78
2022/10/10 04:02:36;;;;;;;0.50;0.40;;;10.90;99.90;;;;;;5034577;28;20219;-77
2022/10/10 04:05:04;;;;;;;1.13;0.50;;;10.90;99.90;;;;;;5034092;28;20192;-78
2022/10/10 04:07:31;;;;;;;0.90;0.70;;;10.90;99.90;;;;;;5033741;28;20195;-79
2022/10/10 04:09:58;;;;;;;0.50;0.40;;;10.80;99.90;;;;;;5038793;28;20192;-77
2022/10/10 04:12:26;;;;;;;0.93;0.93;;;10.90;99.90;;;;;;5040156;28;20270;-77
2022/10/10 04:14:53;;;;;;;0.50;0.40;;;10.80;99.90;;;;;;5038999;28;20226;-77
2022/10/10 04:17:20;;;;;;;0.50;0.40;;;10.80;99.90;;;;;;5039215;28;20202;-78
2022/10/10 04:19:46;;;;;;;0.50;0.40;;;10.80;99.90;;;;;;5039095;28;20772;-80
2022/10/10 04:22:15;;;;;;;0.50;0.40;;;10.90;99.90;;;;;;5034699;28;20306;-75
2022/10/10 04:24:42;;;;;;;0.50;0.40;;;10.90;99.90;;;;;;5034612;28;20198;-80
2022/10/10 04:27:09;;;;;;;0.50;0.40;;;10.90;99.90;;;;;;5034722;28;20231;-77
2022/10/10 04:29:37;;;;;;;0.50;0.40;;;10.80;99.90;;;;;;5033118;28;20184;-77
2022/10/10 04:32:04;;;;;;;0.50;0.38;;;10.80;99.90;;;;;;5032924;28;20780;-77
2022/10/10 04:34:31;;;;;;;0.50;0.40;;;10.90;99.90;;;;;;5036884;28;20290;-77
2022/10/10 04:36:58;;;;;;;0.50;0.40;;;10.90;99.90;;;;;;5036523;28;20278;-77
2022/10/10 04:39:25;;;;;;;0.50;0.40;;;10.90;99.90;;;;;;5034638;28;20214;-77
2022/10/10 04:41:52;;;;;;;0.57;0.57;;;10.80;99.90;;;;;;5034573;28;20227;-77
2022/10/10 04:44:19;;;;;;;0.50;0.40;;;10.80;99.90;;;;;;5033879;28;20258;-76
2022/10/10 04:46:47;;;;;;;0.50;0.40;;;10.80;99.90;;;;;;5034048;28;20195;-78
2022/10/10 04:49:14;;;;;;;0.70;0.60;;;10.80;99.90;;;;;;5033788;28;20282;-77
2022/10/10 04:51:41;;;;;;;0.50;0.40;;;10.90;99.90;;;;;;5033530;28;20258;-77
2022/10/10 04:54:08;;;;;;;0.50;0.40;;;10.90;99.90;;;;;;5033451;28;20195;-78
2022/10/10 04:56:35;;;;;;;0.50;0.40;;;10.90;99.90;;;;;;5034052;28;20206;-77
2022/10/10 04:59:02;;;;;;;2.45;2.35;;;10.80;99.90;;;;;;5033979;28;20191;-78
2022/10/10 05:01:29;;;;;;;0.50;0.40;;;10.80;99.90;;;;;;5033961;28;20748;-78
2022/10/10 05:03:58;;;;;;;0.50;0.40;;;10.80;99.90;;;;;;5033345;28;20199;-77
2022/10/10 05:06:24;;;;;;;0.50;0.40;;;10.80;99.90;;;;;;5034386;28;20205;-78
2022/10/10 05:08:51;;;;;;;0.50;0.40;;;10.80;99.90;;;;;;5033853;28;20199;-77
2022/10/10 05:11:18;;;;;;;0.88;0.88;;;10.80;99.90;;;;;;5034348;28;20636;-77
2022/10/10 05:13:45;;;;;;;0.50;0.40;;;10.80;99.90;;;;;;5034043;28;20195;-76
2022/10/10 05:16:12;;;;;;;0.50;0.40;;;10.80;99.90;;;;;;5034083;28;20238;-78
2022/10/10 05:18:39;;;;;;;1.23;1.13;;;10.80;99.90;;;;;;5033785;28;20199;-77
2022/10/10 05:21:09;;;;;;;1.00;0.98;;;10.80;99.90;;;;;;5033895;28;20252;-77
2022/10/10 05:23:36;;;;;;;0.50;0.40;;;10.80;99.90;;;;;;5033102;28;20754;-78
2022/10/10 05:26:03;;;;;;;0.50;0.40;;;10.80;99.90;;;;;;5034087;28;20734;-78
2022/10/10 05:28:30;;;;;;;0.50;0.40;;;10.80;99.90;;;;;;5034073;28;20282;-78
2022/10/10 05:30:57;;;;;;;0.50;0.40;;;10.70;99.90;;;;;;5035270;28;20191;-79
2022/10/10 05:33:24;;;;;;;0.50;0.40;;;10.70;99.90;;;;;;5034751;28;20283;-79
2022/10/10 05:35:51;;;;;;;0.60;0.55;;;10.70;99.90;;;;;;5043692;28;20262;-80
2022/10/10 05:38:19;;;;;;;0.50;0.40;;;10.70;99.90;;;;;;5049906;28;20195;-78
2022/10/10 05:40:46;;;;;;;0.50;0.40;;;10.80;99.90;;;;;;5047520;28;20222;-79
2022/10/10 05:43:13;;;;;;;0.50;0.40;;;10.80;99.90;;;;;;5034666;28;20292;-79
2022/10/10 05:45:40;;;;;;;0.90;0.85;;;10.80;99.90;;;;;;5034589;28;20250;-79
2022/10/10 05:48:07;;;;;;;0.63;0.63;;;10.80;99.90;;;;;;5035250;28;20234;-79
2022/10/10 05:50:38;;;;;;;0.50;0.40;;;10.80;99.90;;;;;;5033690;28;20221;-79
2022/10/10 05:53:05;;;;;;;0.50;0.40;;;10.80;99.90;;;;;;5033594;28;20225;-79
2022/10/10 05:55:34;;;;;;;0.50;0.40;;;10.80;99.90;;;;;;5034152;28;20198;-79
2022/10/10 05:58:01;;;;;;;0.50;0.40;;;10.80;99.90;;;;;;5034526;28;20206;-79
2022/10/10 06:00:27;;;;;;;0.50;0.40;;;10.80;99.90;;;;;;5034531;28;20257;-78
2022/10/10 06:02:57;;;;;;;0.50;0.40;;;10.80;99.90;;;;;;5034283;28;20326;-79
2022/10/10 06:05:23;;;;;;;0.52;0.40;;;10.80;99.90;;;;;;5033693;28;20630;-78
2022/10/10 06:07:51;;;;;;;0.65;0.65;;;10.80;99.90;;;;;;5035138;28;20195;-79
2022/10/10 06:10:18;;;;;;;0.50;0.40;;;10.90;99.90;;;;;;5034018;28;20298;-78
2022/10/10 06:12:46;;;;;;;0.50;0.40;;;10.90;99.90;;;;;;5033978;28;20221;-79
2022/10/10 06:15:13;;;;;;;1.15;0.65;;;11.00;99.90;;;;;;5033302;28;20191;-78
2022/10/10 06:17:40;;;;;;;1.05;0.90;;;11.00;99.90;;;;;;5033114;28;20203;-79
2022/10/10 06:20:08;;;;;;;0.50;0.50;;;11.00;99.90;;;;;;5032988;28;20211;-79
2022/10/10 06:22:35;;;;;;;0.50;0.40;;;11.10;99.90;;;;;;5032862;28;20228;-79
2022/10/10 06:25:02;;;;;;;0.50;0.40;;;11.10;99.90;;;;;;5032808;28;20704;-76
2022/10/10 06:27:29;;;;;;;7.05;6.53;;;11.20;99.90;;;;;;5033137;28;20282;-78
2022/10/10 06:29:57;;;;;;;0.60;0.60;;;11.30;99.90;;;;;;5032355;28;20283;-79
2022/10/10 06:32:24;;;;;;;0.70;0.60;;;11.60;99.90;;;;;;5033216;28;20366;-78
2022/10/10 06:34:50;;;;;;;0.57;0.40;;;11.70;99.90;;;;;;5031677;28;20673;-78
2022/10/10 06:37:17;;;;;;;0.77;0.77;;;11.80;99.90;;;;;;5031463;28;20437;-78
2022/10/10 06:39:44;;;;;;;0.50;0.40;;;11.90;99.90;;;;;;5030923;28;20223;-78
2022/10/10 06:42:11;;;;;;;0.50;0.50;;;11.90;99.90;;;;;;5032741;28;20472;-76
2022/10/10 06:44:38;;;;;;;0.50;0.40;;;11.90;99.90;;;;;;5034248;28;20195;-76
2022/10/10 06:47:07;;;;;;;0.60;0.40;;;12.00;99.90;;;;;;5034715;28;20213;-75
2022/10/10 06:49:33;;;;;;;0.50;0.40;;;12.10;99.90;;;;;;5034640;28;20211;-74
2022/10/10 06:52:00;;;;;;;0.55;0.45;;;12.20;99.90;;;;;;5034199;28;20467;-77
2022/10/10 06:54:27;;;;;;;0.50;0.40;;;12.30;99.90;;;;;;5034961;28;20286;-78
2022/10/10 06:56:54;;;;;;;0.50;0.40;;;12.40;99.90;;;;;;5035150;28;20206;-78
2022/10/10 06:59:21;;;;;;;0.60;0.60;;;12.40;99.90;;;;;;5035272;28;20278;-78
2022/10/10 07:01:47;;;;;;;0.60;0.60;;;12.50;99.90;;;;;;5034860;28;20584;-77
2022/10/10 07:04:16;;;;;;;0.60;0.55;;;12.60;99.90;;;;;;5034209;28;20292;-77
2022/10/10 07:06:42;;;;;;;0.50;0.40;;;12.70;99.90;;;;;;5034342;28;20195;-78
2022/10/10 07:09:09;;;;;;;1.13;1.13;;;12.80;99.90;;;;;;5034744;28;20192;-78
2022/10/10 07:11:36;;;;;;;0.50;0.40;;;12.90;99.90;;;;;;5034551;28;20461;-77
2022/10/10 07:14:03;;;;;;;0.70;0.60;;;12.90;99.90;;;;;;5034444;28;20446;-78
2022/10/10 07:16:31;;;;;;;0.63;0.63;;;13.00;99.90;;;;;;5033975;28;20488;-78
2022/10/10 07:18:57;;;;;;;0.50;0.40;;;13.20;99.90;;;;;;5033625;28;20450;-78
2022/10/10 07:21:26;;;;;;;1.70;1.60;;;13.30;99.90;;;;;;5034940;28;20486;-78
2022/10/10 07:23:53;;;;;;;0.50;0.40;;;13.50;99.90;;;;;;5034814;28;20478;-77
2022/10/10 07:26:21;;;;;;;0.60;0.57;;;13.70;99.90;;;;;;5035190;28;20430;-78
2022/10/10 07:28:48;;;;;;;0.50;0.40;;;14.00;99.90;;;;;;5034717;28;20446;-77
2022/10/10 07:31:15;;;;;;;0.50;0.40;;;14.40;99.90;;;;;;5034777;28;20517;-78
2022/10/10 07:33:45;;;;;;;2.83;1.03;;;14.60;99.90;;;;;;5034366;28;20446;-78
2022/10/10 07:36:12;;;;;;;3.90;0.87;;;14.70;99.90;;;;;;5034095;28;20454;-78
2022/10/10 07:38:40;;;;;;;0.67;0.67;;;14.80;99.90;;;;;;5036911;28;20525;-77
2022/10/10 07:41:08;;;;;;;0.80;0.80;;;14.90;99.90;;;;;;5039206;28;20482;-77
2022/10/10 07:43:36;;;;;;;0.50;0.43;;;14.80;99.90;;;;;;5034136;28;20487;-78
2022/10/10 07:46:03;;;;;;;0.73;0.57;;;14.90;99.90;;;;;;5034335;28;20537;-78
2022/10/10 07:48:30;;;;;;;0.50;0.40;;;15.00;99.90;;;;;;5034076;28;20440;-77
2022/10/10 07:50:57;;;;;;;3.13;1.07;;;15.10;99.90;;;;;;5033674;28;20430;-78
2022/10/10 07:53:25;;;;;;;0.60;0.40;;;15.60;99.90;;;;;;5032594;28;20466;-78
2022/10/10 07:55:53;;;;;;;0.70;0.70;;;16.20;99.90;;;;;;5033374;28;20517;-78
2022/10/10 07:58:20;;;;;;;0.50;0.40;;;16.40;99.90;;;;;;5034053;28;20593;-78
2022/10/10 08:00:47;;;;;;;0.60;0.60;;;16.40;99.90;;;;;;5034050;28;20595;-77
2022/10/10 08:03:13;;;;;;;0.50;0.40;;;16.70;99.90;;;;;;5034052;28;20541;-78
2022/10/10 08:05:41;;;;;;;0.50;0.40;;;17.00;99.90;;;;;;5032777;28;20448;-76
2022/10/10 08:08:08;;;;;;;0.50;0.40;;;17.60;99.90;;;;;;5034574;28;20442;-78
2022/10/10 08:10:35;;;;;;;0.63;0.63;;;18.10;99.90;;;;;;5034141;28;20438;-76
2022/10/10 08:13:04;;;;;;;0.60;0.50;;;18.50;99.90;;;;;;5033086;28;20468;-75
2022/10/10 08:15:31;;;;;;;1.93;0.80;;;18.90;99.90;;;;;;5032415;28;20434;-75
2022/10/10 08:17:57;;;;;;;0.50;0.40;;;18.80;99.90;;;;;;5032767;28;20797;-76
2022/10/10 08:20:24;;;;;;;0.80;0.80;;;18.80;99.90;;;;;;5032952;28;20484;-75
2022/10/10 08:22:52;;;;;;;0.60;0.40;;;18.80;99.90;;;;;;5032777;28;20468;-76
2022/10/10 08:25:19;;;;;;;0.50;0.40;;;18.70;99.90;;;;;;5032554;28;20430;-76
2022/10/10 08:27:46;;;;;;;0.50;0.30;;;18.80;99.90;;;;;;5032146;28;20437;-76
2022/10/10 08:30:15;;;;;;;0.50;0.30;;;19.30;99.90;;;;;;5033342;28;20439;-78
2022/10/10 08:32:42;;;;;;;0.50;0.30;;;20.20;99.90;;;;;;5034519;28;20446;-76
2022/10/10 08:35:09;;;;;;;0.83;0.70;;;20.60;99.90;;;;;;5031944;28;20534;-76
2022/10/10 08:37:36;;;;;;;1.03;0.60;;;21.60;99.90;;;;;;5032342;28;20438;-76
2022/10/10 08:40:02;;;;;;;0.50;0.30;;;21.90;99.30;;;;;;5031753;28;20438;-75
2022/10/10 08:42:33;;;;;;;0.50;0.30;;;22.70;99.30;;;;;;5033151;28;20501;-76
2022/10/10 08:45:04;;;;;;;0.90;0.90;;;23.00;96.60;;;;;;5031583;28;20549;-76
2022/10/10 08:47:39;;;;;;;0.50;0.30;;;24.30;91.20;;;;;;5031945;28;20441;-76
2022/10/10 08:50:11;;;;;;;0.50;0.40;;;25.10;85.20;;;;;;5031706;28;20465;-76
2022/10/10 08:52:41;;;;;;;0.50;0.40;;;24.70;82.00;;;;;;5031798;28;20550;-76
2022/10/10 08:55:14;;;;;;;0.50;0.40;;;24.60;81.40;;;;;;5031729;28;20434;-75
2022/10/10 08:57:50;;;;;;;0.50;0.30;;;24.30;81.90;;;;;;5033486;28;20463;-77
2022/10/10 09:00:20;;;;;;;0.50;0.40;;;24.10;83.10;;;;;;5031793;28;20457;-76
2022/10/10 09:02:51;;;;;;;0.80;0.80;;;24.50;81.80;;;;;;5031468;28;20536;-76
2022/10/10 09:05:21;;;;;;;0.50;0.30;;;25.20;78.10;;;;;;5030475;28;20446;-76
2022/10/10 09:08:07;;;;;;;0.50;0.30;;;25.80;79.50;;;;;;5031697;28;20480;-76
2022/10/10 09:10:43;;;;;;;0.50;0.30;;;26.70;78.40;;;;;;5031663;28;20433;-76
2022/10/10 09:13:19;;;;;;;0.60;0.50;;;27.20;73.30;;;;;;5031426;28;20537;-77
2022/10/10 09:15:55;;;;;;;0.60;0.50;;;26.80;70.80;;;;;;5030821;28;20508;-76
2022/10/10 09:18:36;;;;;;;0.50;0.40;;;26.60;68.50;;;;;;5031315;28;20430;-76
2022/10/10 09:21:11;;;;;;;0.70;0.50;;;25.70;71.50;;;;;;5031604;28;20478;-76
2022/10/10 09:23:44;;;;;;;0.87;0.40;;;24.70;72.40;;;;;;5031659;28;20490;-76
2022/10/10 09:26:15;;;;;;;0.70;0.60;;;23.30;76.10;;;;;;5031274;28;20498;-76
2022/10/10 09:28:47;;;;;;;1.47;0.60;;;22.80;79.20;;;;;;5031862;28;20430;-76
2022/10/10 09:31:18;;;;;;;0.50;0.40;;;22.30;81.70;;;;;;5032820;28;20446;-77
2022/10/10 09:33:53;;;;;;;1.47;0.97;;;21.70;85.10;;;;;;5031544;28;20483;-76
2022/10/10 09:36:26;;;;;;;0.50;0.30;;;21.10;89.40;;;;;;5031610;28;20939;-76
2022/10/10 09:38:57;;;;;;;1.03;0.60;;;20.90;93.70;;;;;;5034640;28;20485;-76
2022/10/10 09:41:33;;;;;;;0.50;0.30;;;20.70;93.90;;;;;;5031157;28;20513;-77
2022/10/10 09:44:03;;;;;;;0.70;0.63;;;20.30;98.40;;;;;;5031631;28;20444;-78
2022/10/10 09:46:30;;;;;;;2.37;1.00;;;20.10;99.90;;;;;;5032720;28;20439;-76
2022/10/10 09:48:58;;;;;;;0.60;0.40;;;19.80;99.90;;;;;;5031386;28;20457;-76
2022/10/10 09:51:25;;;;;;;5.33;0.57;;;19.70;99.90;;;;;;5030566;28;20469;-75
2022/10/10 09:53:52;;;;;;;0.60;0.50;;;19.60;99.90;;;;;;5031531;28;20528;-77
2022/10/10 09:56:21;;;;;;;2.30;0.77;;;19.20;99.90;;;;;;5032777;28;20533;-78
2022/10/10 09:58:50;;;;;;;0.70;0.70;;;18.80;99.90;;;;;;5032000;28;20442;-78
2022/10/10 10:01:19;;;;;;;3.90;1.47;;;18.70;99.90;;;;;;5031388;28;20477;-75
2022/10/10 10:04:14;;;;;;;0.67;0.60;;;18.40;99.90;;;;;;5031967;28;20802;-77
2022/10/10 10:06:44;;;;;;;0.60;0.57;;;18.70;99.90;;;;;;5031909;28;21021;-75
2022/10/10 10:09:16;;;;;;;0.53;0.40;;;18.50;99.90;;;;;;5031838;28;20418;-76
2022/10/10 10:11:45;;;;;;;0.60;0.60;;;18.20;99.90;;;;;;5030632;28;20457;-76
2022/10/10 10:14:25;;;;;;;0.50;0.30;;;18.30;99.90;;;;;;5030057;28;20521;-76
2022/10/10 10:16:53;;;;;;;0.60;0.50;;;18.60;99.90;;;;;;5032094;28;20820;-77
2022/10/10 10:19:41;;;;;;;0.73;0.73;;;19.10;99.90;;;;;;5034580;28;20469;-75
2022/10/10 10:22:30;;;;;;;1.23;0.70;;;19.20;99.90;;;;;;5034283;28;20484;-76
2022/10/10 10:24:57;;;;;;;0.50;0.40;;;19.50;99.90;;;;;;5034357;28;20435;-76
2022/10/10 10:27:27;;;;;;;0.93;0.50;;;19.90;99.90;;;;;;5034642;28;20486;-76
2022/10/10 10:29:55;;;;;;;0.50;0.40;;;20.20;99.90;;;;;;5034858;28;20555;-76
2022/10/10 10:32:45;;;;;;;1.50;0.67;;;20.20;99.90;;;;;;5034100;28;20501;-75
2022/10/10 10:35:33;;;;;;;0.50;0.30;;;20.20;99.90;;;;;;5034125;28;20426;-75
2022/10/10 10:38:17;;;;;;;3.70;1.33;;;20.20;99.90;;;;;;5034521;28;20450;-75
2022/10/10 10:40:56;;;;;;;1.90;0.60;;;20.70;99.90;;;;;;5034604;28;20470;-76
2022/10/10 10:43:38;;;;;;;1.03;0.80;;;21.30;99.90;;;;;;5033936;28;20569;-76
2022/10/10 10:46:16;;;;;;;0.80;0.73;;;21.50;99.90;;;;;;5034418;28;21014;-77
2022/10/10 10:48:46;;;;;;;5.70;0.90;;;21.30;99.90;;;;;;5034489;28;20440;-76
2022/10/10 10:51:39;;;;;;;0.50;0.40;;;21.70;99.90;;;;;;5034044;28;20956;-76
2022/10/10 10:54:19;;;;;;;1.27;0.70;;;21.10;99.90;;;;;;5034227;28;20517;-76
2022/10/10 10:56:53;;;;;;;2.90;2.10;;;21.00;99.90;;;;;;5034260;28;20919;-76
2022/10/10 10:59:33;;;;;;;2.40;1.63;;;20.90;99.90;;;;;;5035300;28;20537;-76
2022/10/10 11:02:13;;;;;;;1.33;1.17;;;21.00;99.90;;;;;;5035627;28;20572;-77
2022/10/10 11:05:02;;;;;;;0.50;0.40;;;21.10;99.90;;;;;;5033795;28;20453;-77
2022/10/10 11:07:39;;;;;;;11.47;1.67;;;21.60;99.90;;;;;;5034111;28;20465;-77
2022/10/10 11:10:17;;;;;;;0.70;0.70;;;22.30;99.90;;;;;;5031959;28;20859;-77
2022/10/10 11:12:54;;;;;;;2.93;1.53;;;22.30;97.40;;;;;;5032265;28;20462;-77
2022/10/10 11:15:26;;;;;;;1.57;0.50;;;21.70;97.80;;;;;;5033394;28;20468;-76
2022/10/10 11:17:59;;;;;;;0.50;0.30;;;21.60;99.90;;;;;;5022360;28;20467;-76
2022/10/10 11:20:36;;;;;;;1.03;0.90;;;21.70;99.90;;;;;;5013726;28;20451;-75
2022/10/10 11:23:10;;;;;;;0.50;0.30;;;21.40;99.90;;;;;;5013762;28;20470;-76
2022/10/10 11:25:43;;;;;;;0.50;0.30;;;21.50;99.90;;;;;;5013922;28;20438;-75
2022/10/10 11:28:16;;;;;;;0.90;0.70;;;21.30;99.90;;;;;;5013398;28;20517;-75
2022/10/10 11:30:48;;;;;;;0.50;0.30;;;21.10;99.90;;;;;;5013998;28;20439;-76
2022/10/10 11:33:20;;;;;;;0.73;0.73;;;21.00;99.90;;;;;;5013173;28;20537;-76
2022/10/10 11:35:54;;;;;;;0.50;0.40;;;21.50;99.90;;;;;;5013484;28;20489;-76
2022/10/10 11:38:28;;;;;;;0.50;0.40;;;21.70;99.90;;;;;;5013509;28;20427;-77
2022/10/10 11:40:58;;;;;;;5.80;1.17;;;21.60;99.90;;;;;;5012971;28;20459;-76
2022/10/10 11:43:34;;;;;;;0.50;0.40;;;21.30;99.90;;;;;;5013074;28;20470;-77
2022/10/10 11:46:08;;;;;;;0.60;0.50;;;21.30;99.90;;;;;;5013508;28;20497;-76
2022/10/10 11:48:45;;;;;;;0.60;0.40;;;21.60;99.90;;;;;;5013055;28;20909;-76
2022/10/10 11:51:22;;;;;;;0.60;0.50;;;21.40;99.90;;;;;;5013090;28;20434;-77
2022/10/10 11:53:53;;;;;;;0.80;0.80;;;21.10;99.90;;;;;;5013252;28;20538;-76
2022/10/10 11:56:28;;;;;;;1.63;0.97;;;20.90;99.90;;;;;;5013331;28;20507;-76
2022/10/10 11:59:00;;;;;;;0.70;0.70;;;20.80;99.90;;;;;;5013101;28;20470;-75
2022/10/10 12:01:29;;;;;;;0.50;0.30;;;20.70;99.90;;;;;;5013024;28;20929;-76
2022/10/10 12:03:57;;;;;;;0.50;0.30;;;20.60;99.90;;;;;;5012795;28;20977;-76
2022/10/10 12:06:30;;;;;;;4.03;1.10;;;20.70;99.90;;;;;;5012814;28;20522;-76
2022/10/10 12:09:03;;;;;;;0.50;0.40;;;20.20;99.90;;;;;;5013235;28;20541;-76
2022/10/10 12:11:35;;;;;;;0.50;0.40;;;19.90;99.90;;;;;;5012905;28;20439;-76
2022/10/10 12:14:03;;;;;;;1.00;1.00;;;19.70;99.90;;;;;;5012069;28;20522;-74
2022/10/10 12:16:34;;;;;;;7.13;1.33;;;19.80;99.90;;;;;;5012875;28;20432;-77
2022/10/10 12:19:05;;;;;;;0.93;0.67;;;19.60;99.90;;;;;;5013121;28;20447;-76
2022/10/10 12:21:49;;;;;;;0.80;0.77;;;19.60;99.90;;;;;;5012643;28;20466;-77
2022/10/10 12:24:18;;;;;;;0.50;0.40;;;19.40;99.90;;;;;;5012821;28;20433;-76
2022/10/10 12:27:25;;;;;;;1.10;1.10;;;19.30;99.90;;;;;;5013316;28;20525;-78
2022/10/10 12:30:27;;;;;;;1.90;1.80;;;19.30;99.90;;;;;;5012495;28;20474;-77
2022/10/10 12:32:54;;;;;;;1.63;1.07;;;19.60;99.90;;;;;;5011992;28;20451;-76
2022/10/10 12:35:36;;;;;;;0.60;0.40;;;19.80;99.90;;;;;;5012305;28;20470;-76
2022/10/10 12:38:21;;;;;;;0.60;0.60;;;19.60;99.90;;;;;;5012721;28;20465;-77
2022/10/10 12:41:13;;;;;;;0.60;0.50;;;19.70;99.90;;;;;;5012414;28;20439;-77
2022/10/10 12:43:48;;;;;;;1.00;0.60;;;19.90;99.90;;;;;;5012088;28;20561;-76
2022/10/10 12:46:25;;;;;;;1.13;0.80;;;20.10;99.90;;;;;;5012898;28;20504;-76
2022/10/10 12:49:18;;;;;;;0.70;0.60;;;20.30;99.90;;;;;;5012130;28;20518;-76
2022/10/10 12:51:58;;;;;;;0.60;0.60;;;19.90;99.90;;;;;;5009847;28;20459;-77
2022/10/10 12:54:30;;;;;;;0.60;0.40;;;19.90;99.90;;;;;;5011978;28;20443;-76
2022/10/10 12:57:08;;;;;;;1.00;0.83;;;19.90;99.90;;;;;;5012436;28;20991;-76
2022/10/10 12:59:36;;;;;;;0.90;0.80;;;20.00;99.90;;;;;;5012470;28;20418;-77
2022/10/10 13:02:11;;;;;;;0.60;0.40;;;20.60;99.90;;;;;;5011924;28;20604;-75
2022/10/10 13:04:42;;;;;;;0.80;0.77;;;21.50;99.90;;;;;;5011953;28;20498;-76
2022/10/10 13:07:15;;;;;;;0.50;0.30;;;22.00;99.90;;;;;;5012142;28;20446;-76